Baie De Seine — FISL — position and weather

sailwx.info

Track history (hours):
 
Tides and Currents Weather Stations Pressure Air Temp Water Temp Dewpoint Dewpoint Depression Visibility Wind Speed Wind Dir Waves Ship Positions

Baie De Seine

Last reported at 2017-Sep-22 00:26 UTC. Time now 2017-Sep-23 00:17 UTC.
Position N 50°29' W 000°47'.

Length 199 m; draft 6 m.

Type: Ship. MMSI: 226338000.

Date/timePositionNaut miles runAvg speedWind from/ knotsBaromVisibWave heightAir tempDewpointWater temp
2017-Sep-22 00:26N 50°29' W 000°47'512.6
2017-Sep-22 00:00N 50°34' W 000°51'612.2
2017-Sep-21 23:30N 50°39' W 000°55'714.7
2017-Sep-21 23:00N 50°44' W 001°04'5 9.7
2017-Sep-21 22:31N 50°49' W 001°06'0 0.3
2017-Sep-21 22:00N 50°49' W 001°06'0 0.0
2017-Sep-21 21:31N 50°49' W 001°06'0 0.0
2017-Sep-21 21:01N 50°49' W 001°06'0 0.0
2017-Sep-21 20:31N 50°49' W 001°06'0 0.0
2017-Sep-21 20:01N 50°49' W 001°06'1 1.7
2017-Sep-21 19:31N 50°48' W 001°07'611.8
2017-Sep-21 19:00N 50°43' W 001°02'612.3
2017-Sep-21 18:30N 50°37' W 001°03'916.2
2017-Sep-21 17:55N 50°30' W 001°14'7217.3
2017-Sep-21 13:46N 49°49' W 002°46'517.6
2017-Sep-21 13:30N 49°47' W 002°53'917.8
2017-Sep-21 12:59N 49°42' W 003°04'918.1
2017-Sep-21 12:29N 49°36' W 003°15'6919.3
2017-Sep-21 08:54N 48°48' W 004°31'819.4
2017-Sep-21 08:30N 48°42' W 004°39'1019.2
2017-Sep-21 08:00N 48°35' W 004°49'1019.9
2017-Sep-21 07:30N 48°28' W 004°59'816.2
2017-Sep-21 07:00N 48°22' W 005°06'1019.9
2017-Sep-21 06:30N 48°12' W 005°09'1219.6
2017-Sep-21 05:52N 47°60' W 005°08'719.5
2017-Sep-21 05:30N 47°53' W 005°05'1020.2
2017-Sep-21 05:01N 47°43' W 005°00'2020.9
2017-Sep-21 04:02N 47°24' W 004°50'1420.9
2017-Sep-21 03:22N 47°11' W 004°43'921.1
2017-Sep-21 02:56N 47°02' W 004°39'1721.5
2017-Sep-21 02:07N 46°46' W 004°31'421.7
2017-Sep-21 01:55N 46°41' W 004°29'1021.8
2017-Sep-21 01:27N 46°31' W 004°25'1021.9
2017-Sep-21 01:00N 46°22' W 004°20'1121.8
2017-Sep-21 00:30N 46°12' W 004°15'1121.8
2017-Sep-20 23:59N 46°02' W 004°10'1121.8
2017-Sep-20 23:30N 45°52' W 004°04'1221.1
2017-Sep-20 22:56N 45°40' W 004°01'921.2
2017-Sep-20 22:30N 45°31' W 003°60'6321.5
2017-Sep-20 19:35N 44°31' W 003°34'221.5
2017-Sep-20 19:30N 44°29' W 003°33'1121.6
2017-Sep-20 19:00N 44°19' W 003°29'1121.7
2017-Sep-20 18:30N 44°08' W 003°25'1121.3
2017-Sep-20 18:00N 43°58' W 003°20'2421.6
2017-Sep-20 16:54N 43°35' W 003°10'821.5
2017-Sep-20 16:30N 43°27' W 003°07'612.7
2017-Sep-20 16:01N 43°21' W 003°04'0 0.3
2017-Sep-20 15:28N 43°21' W 003°04'0 0.0
2017-Sep-20 14:58N 43°21' W 003°04'0 0.0
2017-Sep-20 13:58N 43°21' W 003°04'0 0.0
2017-Sep-20 13:28N 43°21' W 003°04'0 0.0
2017-Sep-20 12:58N 43°21' W 003°04'0 0.0
2017-Sep-20 12:30N 43°21' W 003°04'1 1.9
2017-Sep-20 12:00N 43°21' W 003°03'713.3
2017-Sep-20 11:30N 43°27' W 003°07'1019.9
2017-Sep-20 11:00N 43°37' W 003°11'1019.7
2017-Sep-20 10:31N 43°46' W 003°15'2319.2
2017-Sep-20 09:18N 44°08' W 003°25'6219.2
2017-Sep-20 06:05N 45°07' W 003°51'719.4
2017-Sep-20 05:42N 45°14' W 003°54'519.1
2017-Sep-20 05:26N 45°19' W 003°56'1019.4
2017-Sep-20 04:55N 45°29' W 004°00'919.4
2017-Sep-20 04:29N 45°37' W 004°04'1019.0
2017-Sep-20 03:56N 45°47' W 004°08'919.1
2017-Sep-20 03:27N 45°56' W 004°12'1219.2
2017-Sep-20 02:48N 46°08' W 004°17'619.1
2017-Sep-20 02:28N 46°14' W 004°20'919.3
2017-Sep-20 01:59N 46°23' W 004°24'919.4
2017-Sep-20 01:31N 46°31' W 004°28'1119.3
2017-Sep-20 00:56N 46°42' W 004°32'818.8
2017-Sep-20 00:30N 46°50' W 004°36'1019.1
2017-Sep-19 23:59N 46°59' W 004°40'918.7
2017-Sep-19 23:30N 47°08' W 004°44'918.6
2017-Sep-19 23:01N 47°17' W 004°48'1019.2
2017-Sep-19 22:29N 47°26' W 004°53'1019.8
2017-Sep-19 21:58N 47°36' W 004°57'920.0
2017-Sep-19 21:30N 47°45' W 005°02'1020.5
2017-Sep-19 21:01N 47°54' W 005°08'1121.5
2017-Sep-19 20:30N 48°04' W 005°12'1121.6
2017-Sep-19 20:01N 48°15' W 005°09'1121.8
2017-Sep-19 19:30N 48°25' W 005°04'917.8
2017-Sep-19 19:00N 48°32' W 004°55'1020.9
2017-Sep-19 18:30N 48°40' W 004°44'1019.9
2017-Sep-19 18:00N 48°47' W 004°34'1719.2
2017-Sep-19 17:08N 48°59' W 004°17'618.5
2017-Sep-19 16:50N 49°04' W 004°11'4817.8
2017-Sep-19 14:07N 49°40' W 003°23'219.6
2017-Sep-19 14:00N 49°42' W 003°21'1820.1
2017-Sep-19 13:08N 49°54' W 003°02'320.6
2017-Sep-19 13:00N 49°56' W 002°59'7620.6
2017-Sep-19 09:20N 50°32' W 001°14'618.3
2017-Sep-19 09:00N 50°36' W 001°07'816.0
2017-Sep-19 08:30N 50°43' W 001°03'611.6
2017-Sep-19 08:01N 50°49' W 001°06'0 0.7
2017-Sep-19 07:28N 50°49' W 001°06'0 0.0
2017-Sep-19 06:58N 50°49' W 001°06'0 0.0
2017-Sep-19 06:28N 50°49' W 001°06'0 0.0
2017-Sep-19 05:58N 50°49' W 001°06'0 0.0
2017-Sep-19 05:28N 50°49' W 001°06'0 0.0
2017-Sep-19 04:58N 50°49' W 001°06'0 0.0
2017-Sep-19 04:28N 50°49' W 001°06'0 0.0
2017-Sep-19 03:58N 50°49' W 001°06'0 0.0
2017-Sep-19 03:28N 50°49' W 001°06'0 0.0
2017-Sep-19 02:58N 50°49' W 001°06'0 0.0
2017-Sep-19 02:28N 50°49' W 001°06'0 0.0
2017-Sep-19 01:58N 50°49' W 001°06'0 0.0
2017-Sep-19 01:28N 50°49' W 001°06'0 0.0
2017-Sep-19 00:58N 50°49' W 001°06'0 0.0
2017-Sep-19 00:28N 50°49' W 001°06'0 0.0
2017-Sep-18 23:58N 50°49' W 001°06'0 0.0
2017-Sep-18 23:28N 50°49' W 001°06'0 0.0
2017-Sep-18 22:58N 50°49' W 001°06'0 0.0
2017-Sep-18 22:28N 50°49' W 001°06'0 0.0
2017-Sep-18 21:58N 50°49' W 001°06'0 0.0
2017-Sep-18 21:28N 50°49' W 001°06'0 0.0
2017-Sep-18 20:58N 50°49' W 001°06'0 0.0
2017-Sep-18 20:28N 50°49' W 001°06'0 0.0
2017-Sep-18 20:00N 50°49' W 001°06'1 1.0
2017-Sep-18 19:31N 50°49' W 001°07'612.0
2017-Sep-18 19:00N 50°43' W 001°03'815.9
2017-Sep-18 18:30N 50°35' W 001°07'1019.3
2017-Sep-18 18:00N 50°29' W 001°18'6119.0
2017-Sep-18 14:48N 49°54' W 002°36'619.2
2017-Sep-18 14:29N 49°52' W 002°46'918.7
2017-Sep-18 13:59N 49°47' W 002°57'1119.1
2017-Sep-18 13:24N 49°39' W 003°09'819.3
2017-Sep-18 13:00N 49°33' W 003°18'6718.7
2017-Sep-18 09:24N 48°47' W 004°33'616.3
2017-Sep-18 09:00N 48°43' W 004°40'816.3
2017-Sep-18 08:30N 48°37' W 004°48'917.4
2017-Sep-18 08:00N 48°30' W 004°57'815.1
2017-Sep-18 07:31N 48°25' W 005°05'917.9
2017-Sep-18 07:01N 48°16' W 005°09'918.8
2017-Sep-18 06:31N 48°07' W 005°10'918.0
2017-Sep-18 06:00N 47°58' W 005°10'918.0
2017-Sep-18 05:30N 47°49' W 005°09'1018.6
2017-Sep-18 04:58N 47°40' W 005°03'918.9
2017-Sep-18 04:30N 47°31' W 004°59'6 0.2
2017-Sep-16 22:13N 47°37' W 005°02'418.9
2017-Sep-16 22:00N 47°41' W 005°04'918.8
2017-Sep-16 21:30N 47°50' W 005°04'1019.1
2017-Sep-16 21:00N 47°60' W 005°08'919.0
2017-Sep-16 20:31N 48°09' W 005°09'1019.8
2017-Sep-16 20:00N 48°19' W 005°07'917.5
2017-Sep-16 19:30N 48°27' W 005°01'918.3
2017-Sep-16 19:01N 48°33' W 004°52'1020.2
2017-Sep-16 18:30N 48°41' W 004°42'1020.1
2017-Sep-16 18:00N 48°48' W 004°32'6718.5
2017-Sep-16 14:24N 49°38' W 003°24'717.8
2017-Sep-16 14:00N 49°44' W 003°17'1518.7
2017-Sep-16 13:13N 49°55' W 003°02'419.1
2017-Sep-16 13:00N 49°57' W 002°56'7719.9
2017-Sep-16 09:09N 50°33' W 001°11'521.7
2017-Sep-16 08:54N 50°37' W 001°05'716.5
2017-Sep-16 08:30N 50°43' W 001°04'510.9
2017-Sep-16 08:00N 50°49' W 001°06'0 0.5
2017-Sep-16 07:29N 50°49' W 001°06'0 0.0
2017-Sep-16 06:59N 50°49' W 001°06'0 0.0
2017-Sep-16 06:29N 50°49' W 001°06'0 0.0
2017-Sep-16 05:59N 50°49' W 001°06'0 0.0
2017-Sep-16 05:29N 50°49' W 001°06'0 0.0
2017-Sep-16 04:59N 50°49' W 001°06'2 3.6
2017-Sep-16 04:31N 50°47' W 001°06'714.9
2017-Sep-16 04:01N 50°42' W 000°58'6211.1
2017-Sep-15 22:24N 49°47' W 000°13'4 8.8
2017-Sep-15 22:00N 49°44' W 000°10'4 8.6
2017-Sep-15 21:30N 49°40' W 000°06'4 8.4
2017-Sep-15 21:00N 49°36' W 000°03'612.2
2017-Sep-15 20:30N 49°31' E 000°01'4 7.7
2017-Sep-15 20:00N 49°29' E 000°07'0 0.0
2017-Sep-15 19:30N 49°29' E 000°07'0 0.0
2017-Sep-15 19:00N 49°29' E 000°07'0 0.0
2017-Sep-15 18:30N 49°29' E 000°07'0 0.0
2017-Sep-15 18:00N 49°29' E 000°07'0 0.0
2017-Sep-15 17:30N 49°29' E 000°07'0 0.0
2017-Sep-15 17:00N 49°29' E 000°07'0 0.0
2017-Sep-15 16:30N 49°29' E 000°07'0 0.0
2017-Sep-15 16:00N 49°29' E 000°07'0 0.0
2017-Sep-15 15:30N 49°29' E 000°07'0 0.0
2017-Sep-15 15:00N 49°29' E 000°07'0 0.0
2017-Sep-15 14:30N 49°29' E 000°07'0 0.0
2017-Sep-15 14:00N 49°29' E 000°07'0 0.0
2017-Sep-15 13:30N 49°29' E 000°07'0 0.0
2017-Sep-15 13:00N 49°29' E 000°07'0 0.0
2017-Sep-15 12:30N 49°29' E 000°07'0 0.0
2017-Sep-15 12:00N 49°29' E 000°07'0 0.0
2017-Sep-15 11:30N 49°29' E 000°07'0 0.0
2017-Sep-15 11:00N 49°29' E 000°07'0 0.0
2017-Sep-15 10:30N 49°29' E 000°07'0 0.0
2017-Sep-15 10:00N 49°29' E 000°07'0 0.0
2017-Sep-15 09:30N 49°29' E 000°07'0 0.0
2017-Sep-15 09:00N 49°29' E 000°07'0 0.0
2017-Sep-15 08:30N 49°29' E 000°07'0 0.0
2017-Sep-15 08:00N 49°29' E 000°07'0 0.0
2017-Sep-15 07:30N 49°29' E 000°07'0 0.0
2017-Sep-15 07:00N 49°29' E 000°07'0 0.0
2017-Sep-15 06:30N 49°29' E 000°07'1 1.8
2017-Sep-15 06:01N 49°29' E 000°05'612.3
2017-Sep-15 05:30N 49°33' W 000°02'612.2
2017-Sep-15 05:00N 49°39' W 000°06'612.4
2017-Sep-15 04:30N 49°44' W 000°10'612.4
2017-Sep-15 04:00N 49°50' W 000°12'4312.7
2017-Sep-15 00:35N 50°28' W 000°45'613.3
2017-Sep-15 00:07N 50°33' W 000°50'213.2
2017-Sep-15 00:00N 50°35' W 000°51'713.4
2017-Sep-14 23:30N 50°40' W 000°57'713.3
2017-Sep-14 23:00N 50°45' W 001°05'4 7.8
2017-Sep-14 22:31N 50°49' W 001°06'0 0.3
2017-Sep-14 22:00N 50°49' W 001°06'0 0.0
2017-Sep-14 21:30N 50°49' W 001°06'0 0.0
2017-Sep-14 21:00N 50°49' W 001°06'0 0.0
2017-Sep-14 20:30N 50°49' W 001°06'0 0.0
2017-Sep-14 20:01N 50°49' W 001°06'1 1.2
2017-Sep-14 19:30N 50°48' W 001°07'4 7.4
2017-Sep-14 19:00N 50°45' W 001°05'714.2
2017-Sep-14 18:30N 50°38' W 001°06'918.6
2017-Sep-14 18:00N 50°31' W 001°15'7021.0
2017-Sep-14 14:41N 49°50' W 002°43'421.8
2017-Sep-14 14:30N 49°48' W 002°48'1321.5
2017-Sep-14 13:54N 49°40' W 003°04'921.1
2017-Sep-14 13:29N 49°34' W 003°14'6521.1
2017-Sep-14 10:24N 48°49' W 004°27'821.2
2017-Sep-14 10:00N 48°44' W 004°36'1121.3
2017-Sep-14 09:30N 48°37' W 004°48'917.4
2017-Sep-14 09:00N 48°28' W 004°51'714.9
2017-Sep-14 08:30N 48°21' W 004°49'815.2
2017-Sep-14 08:00N 48°14' W 004°50'917.9
2017-Sep-14 07:31N 48°05' W 004°45'714.4
2017-Sep-14 07:01N 47°58' W 004°43'918.4
2017-Sep-14 06:30N 47°49' W 004°40'78 2.7
2017-Sep-13 01:43N 46°34' W 004°12'920.2
2017-Sep-13 01:15N 46°43' W 004°16'520.4
2017-Sep-13 00:59N 46°48' W 004°18'5520.7
2017-Sep-12 22:19N 47°42' W 004°37'620.8
2017-Sep-12 22:00N 47°48' W 004°39'1020.5
2017-Sep-12 21:31N 47°58' W 004°43'816.8
2017-Sep-12 21:01N 48°06' W 004°45'1020.3
2017-Sep-12 20:31N 48°16' W 004°46'815.7
2017-Sep-12 20:01N 48°24' W 004°49'815.3
2017-Sep-12 19:30N 48°31' W 004°51'917.5
2017-Sep-12 19:00N 48°39' W 004°44'917.7
2017-Sep-12 18:30N 48°46' W 004°35'6919.6
2017-Sep-12 15:00N 49°35' W 003°22'1120.4
2017-Sep-12 14:27N 49°44' W 003°13'1220.1
2017-Sep-12 13:52N 49°53' W 003°01'719.5
2017-Sep-12 13:30N 49°58' W 002°53'6718.1
2017-Sep-12 09:50N 50°29' W 001°21'818.7
2017-Sep-12 09:25N 50°33' W 001°10'818.9
2017-Sep-12 09:00N 50°38' W 001°01'714.2
2017-Sep-12 08:30N 50°45' W 001°05'4 8.3
2017-Sep-12 08:00N 50°49' W 001°06'0 0.0
2017-Sep-12 07:30N 50°49' W 001°06'0 0.0
2017-Sep-12 07:00N 50°49' W 001°06'0 0.0
2017-Sep-12 06:30N 50°49' W 001°06'0 0.0
2017-Sep-12 06:00N 50°49' W 001°06'0 0.0
2017-Sep-12 05:30N 50°49' W 001°06'0 0.0
2017-Sep-12 05:00N 50°49' W 001°06'0 0.0
2017-Sep-12 04:30N 50°49' W 001°06'0 0.0
2017-Sep-12 04:00N 50°49' W 001°06'0 0.0
2017-Sep-12 03:30N 50°49' W 001°06'0 0.0
2017-Sep-12 03:00N 50°49' W 001°06'0 0.0
2017-Sep-12 02:30N 50°49' W 001°06'0 0.0
2017-Sep-12 02:00N 50°49' W 001°06'0 0.0
2017-Sep-12 01:30N 50°49' W 001°06'0 0.0
2017-Sep-12 01:00N 50°49' W 001°06'0 0.0
2017-Sep-12 00:31N 50°49' W 001°06'  
Track history (hours):
 
Tides and Currents Weather Stations Pressure Air Temp Water Temp Dewpoint Dewpoint Depression Visibility Wind Speed Wind Dir Waves Ship Positions

Baie De Seine

Last reported at 2017-Sep-22 00:26 UTC. Time now 2017-Sep-23 00:17 UTC.
Position N 50°29' W 000°47'.

Length 199 m; draft 6 m.

Type: Ship. MMSI: 226338000.

Date/timePositionNaut miles runAvg speedWind from/ knotsBaromVisibWave heightAir tempDewpointWater temp
2017-Sep-22 00:26N 50°29' W 000°47'512.6
2017-Sep-22 00:00N 50°34' W 000°51'612.2
2017-Sep-21 23:30N 50°39' W 000°55'714.7
2017-Sep-21 23:00N 50°44' W 001°04'5 9.7
2017-Sep-21 22:31N 50°49' W 001°06'0 0.3
2017-Sep-21 22:00N 50°49' W 001°06'0 0.0
2017-Sep-21 21:31N 50°49' W 001°06'0 0.0
2017-Sep-21 21:01N 50°49' W 001°06'0 0.0
2017-Sep-21 20:31N 50°49' W 001°06'0 0.0
2017-Sep-21 20:01N 50°49' W 001°06'1 1.7
2017-Sep-21 19:31N 50°48' W 001°07'611.8
2017-Sep-21 19:00N 50°43' W 001°02'612.3
2017-Sep-21 18:30N 50°37' W 001°03'916.2
2017-Sep-21 17:55N 50°30' W 001°14'7217.3
2017-Sep-21 13:46N 49°49' W 002°46'517.6
2017-Sep-21 13:30N 49°47' W 002°53'917.8
2017-Sep-21 12:59N 49°42' W 003°04'918.1
2017-Sep-21 12:29N 49°36' W 003°15'6919.3
2017-Sep-21 08:54N 48°48' W 004°31'819.4
2017-Sep-21 08:30N 48°42' W 004°39'1019.2
2017-Sep-21 08:00N 48°35' W 004°49'1019.9
2017-Sep-21 07:30N 48°28' W 004°59'816.2
2017-Sep-21 07:00N 48°22' W 005°06'1019.9
2017-Sep-21 06:30N 48°12' W 005°09'1219.6
2017-Sep-21 05:52N 47°60' W 005°08'719.5
2017-Sep-21 05:30N 47°53' W 005°05'1020.2
2017-Sep-21 05:01N 47°43' W 005°00'2020.9
2017-Sep-21 04:02N 47°24' W 004°50'1420.9
2017-Sep-21 03:22N 47°11' W 004°43'921.1
2017-Sep-21 02:56N 47°02' W 004°39'1721.5
2017-Sep-21 02:07N 46°46' W 004°31'421.7
2017-Sep-21 01:55N 46°41' W 004°29'1021.8
2017-Sep-21 01:27N 46°31' W 004°25'1021.9
2017-Sep-21 01:00N 46°22' W 004°20'1121.8
2017-Sep-21 00:30N 46°12' W 004°15'1121.8
2017-Sep-20 23:59N 46°02' W 004°10'1121.8
2017-Sep-20 23:30N 45°52' W 004°04'1221.1
2017-Sep-20 22:56N 45°40' W 004°01'921.2
2017-Sep-20 22:30N 45°31' W 003°60'6321.5
2017-Sep-20 19:35N 44°31' W 003°34'221.5
2017-Sep-20 19:30N 44°29' W 003°33'1121.6
2017-Sep-20 19:00N 44°19' W 003°29'1121.7
2017-Sep-20 18:30N 44°08' W 003°25'1121.3
2017-Sep-20 18:00N 43°58' W 003°20'2421.6
2017-Sep-20 16:54N 43°35' W 003°10'821.5
2017-Sep-20 16:30N 43°27' W 003°07'612.7
2017-Sep-20 16:01N 43°21' W 003°04'0 0.3
2017-Sep-20 15:28N 43°21' W 003°04'0 0.0
2017-Sep-20 14:58N 43°21' W 003°04'0 0.0
2017-Sep-20 13:58N 43°21' W 003°04'0 0.0
2017-Sep-20 13:28N 43°21' W 003°04'0 0.0
2017-Sep-20 12:58N 43°21' W 003°04'0 0.0
2017-Sep-20 12:30N 43°21' W 003°04'1 1.9
2017-Sep-20 12:00N 43°21' W 003°03'713.3
2017-Sep-20 11:30N 43°27' W 003°07'1019.9
2017-Sep-20 11:00N 43°37' W 003°11'1019.7
2017-Sep-20 10:31N 43°46' W 003°15'2319.2
2017-Sep-20 09:18N 44°08' W 003°25'6219.2
2017-Sep-20 06:05N 45°07' W 003°51'719.4
2017-Sep-20 05:42N 45°14' W 003°54'519.1
2017-Sep-20 05:26N 45°19' W 003°56'1019.4
2017-Sep-20 04:55N 45°29' W 004°00'919.4
2017-Sep-20 04:29N 45°37' W 004°04'1019.0
2017-Sep-20 03:56N 45°47' W 004°08'919.1
2017-Sep-20 03:27N 45°56' W 004°12'1219.2
2017-Sep-20 02:48N 46°08' W 004°17'619.1
2017-Sep-20 02:28N 46°14' W 004°20'919.3
2017-Sep-20 01:59N 46°23' W 004°24'919.4
2017-Sep-20 01:31N 46°31' W 004°28'1119.3
2017-Sep-20 00:56N 46°42' W 004°32'818.8
2017-Sep-20 00:30N 46°50' W 004°36'1019.1
2017-Sep-19 23:59N 46°59' W 004°40'918.7
2017-Sep-19 23:30N 47°08' W 004°44'918.6
2017-Sep-19 23:01N 47°17' W 004°48'1019.2
2017-Sep-19 22:29N 47°26' W 004°53'1019.8
2017-Sep-19 21:58N 47°36' W 004°57'920.0
2017-Sep-19 21:30N 47°45' W 005°02'1020.5
2017-Sep-19 21:01N 47°54' W 005°08'1121.5
2017-Sep-19 20:30N 48°04' W 005°12'1121.6
2017-Sep-19 20:01N 48°15' W 005°09'1121.8
2017-Sep-19 19:30N 48°25' W 005°04'917.8
2017-Sep-19 19:00N 48°32' W 004°55'1020.9
2017-Sep-19 18:30N 48°40' W 004°44'1019.9
2017-Sep-19 18:00N 48°47' W 004°34'1719.2
2017-Sep-19 17:08N 48°59' W 004°17'618.5
2017-Sep-19 16:50N 49°04' W 004°11'4817.8
2017-Sep-19 14:07N 49°40' W 003°23'219.6
2017-Sep-19 14:00N 49°42' W 003°21'1820.1
2017-Sep-19 13:08N 49°54' W 003°02'320.6
2017-Sep-19 13:00N 49°56' W 002°59'7620.6
2017-Sep-19 09:20N 50°32' W 001°14'618.3
2017-Sep-19 09:00N 50°36' W 001°07'816.0
2017-Sep-19 08:30N 50°43' W 001°03'611.6
2017-Sep-19 08:01N 50°49' W 001°06'0 0.7
2017-Sep-19 07:28N 50°49' W 001°06'0 0.0
2017-Sep-19 06:58N 50°49' W 001°06'0 0.0
2017-Sep-19 06:28N 50°49' W 001°06'0 0.0
2017-Sep-19 05:58N 50°49' W 001°06'0 0.0
2017-Sep-19 05:28N 50°49' W 001°06'0 0.0
2017-Sep-19 04:58N 50°49' W 001°06'0 0.0
2017-Sep-19 04:28N 50°49' W 001°06'0 0.0
2017-Sep-19 03:58N 50°49' W 001°06'0 0.0
2017-Sep-19 03:28N 50°49' W 001°06'0 0.0
2017-Sep-19 02:58N 50°49' W 001°06'0 0.0
2017-Sep-19 02:28N 50°49' W 001°06'0 0.0
2017-Sep-19 01:58N 50°49' W 001°06'0 0.0
2017-Sep-19 01:28N 50°49' W 001°06'0 0.0
2017-Sep-19 00:58N 50°49' W 001°06'0 0.0
2017-Sep-19 00:28N 50°49' W 001°06'0 0.0
2017-Sep-18 23:58N 50°49' W 001°06'0 0.0
2017-Sep-18 23:28N 50°49' W 001°06'0 0.0
2017-Sep-18 22:58N 50°49' W 001°06'0 0.0
2017-Sep-18 22:28N 50°49' W 001°06'0 0.0
2017-Sep-18 21:58N 50°49' W 001°06'0 0.0
2017-Sep-18 21:28N 50°49' W 001°06'0 0.0
2017-Sep-18 20:58N 50°49' W 001°06'0 0.0
2017-Sep-18 20:28N 50°49' W 001°06'0 0.0
2017-Sep-18 20:00N 50°49' W 001°06'1 1.0
2017-Sep-18 19:31N 50°49' W 001°07'612.0
2017-Sep-18 19:00N 50°43' W 001°03'815.9
2017-Sep-18 18:30N 50°35' W 001°07'1019.3
2017-Sep-18 18:00N 50°29' W 001°18'6119.0
2017-Sep-18 14:48N 49°54' W 002°36'619.2
2017-Sep-18 14:29N 49°52' W 002°46'918.7
2017-Sep-18 13:59N 49°47' W 002°57'1119.1
2017-Sep-18 13:24N 49°39' W 003°09'819.3
2017-Sep-18 13:00N 49°33' W 003°18'6718.7
2017-Sep-18 09:24N 48°47' W 004°33'616.3
2017-Sep-18 09:00N 48°43' W 004°40'816.3
2017-Sep-18 08:30N 48°37' W 004°48'917.4
2017-Sep-18 08:00N 48°30' W 004°57'815.1
2017-Sep-18 07:31N 48°25' W 005°05'917.9
2017-Sep-18 07:01N 48°16' W 005°09'918.8
2017-Sep-18 06:31N 48°07' W 005°10'918.0
2017-Sep-18 06:00N 47°58' W 005°10'918.0
2017-Sep-18 05:30N 47°49' W 005°09'1018.6
2017-Sep-18 04:58N 47°40' W 005°03'918.9
2017-Sep-18 04:30N 47°31' W 004°59'6 0.2
2017-Sep-16 22:13N 47°37' W 005°02'418.9
2017-Sep-16 22:00N 47°41' W 005°04'918.8
2017-Sep-16 21:30N 47°50' W 005°04'1019.1
2017-Sep-16 21:00N 47°60' W 005°08'919.0
2017-Sep-16 20:31N 48°09' W 005°09'1019.8
2017-Sep-16 20:00N 48°19' W 005°07'917.5
2017-Sep-16 19:30N 48°27' W 005°01'918.3
2017-Sep-16 19:01N 48°33' W 004°52'1020.2
2017-Sep-16 18:30N 48°41' W 004°42'1020.1
2017-Sep-16 18:00N 48°48' W 004°32'6718.5
2017-Sep-16 14:24N 49°38' W 003°24'717.8
2017-Sep-16 14:00N 49°44' W 003°17'1518.7
2017-Sep-16 13:13N 49°55' W 003°02'419.1
2017-Sep-16 13:00N 49°57' W 002°56'7719.9
2017-Sep-16 09:09N 50°33' W 001°11'521.7
2017-Sep-16 08:54N 50°37' W 001°05'716.5
2017-Sep-16 08:30N 50°43' W 001°04'510.9
2017-Sep-16 08:00N 50°49' W 001°06'0 0.5
2017-Sep-16 07:29N 50°49' W 001°06'0 0.0
2017-Sep-16 06:59N 50°49' W 001°06'0 0.0
2017-Sep-16 06:29N 50°49' W 001°06'0 0.0
2017-Sep-16 05:59N 50°49' W 001°06'0 0.0
2017-Sep-16 05:29N 50°49' W 001°06'0 0.0
2017-Sep-16 04:59N 50°49' W 001°06'2 3.6
2017-Sep-16 04:31N 50°47' W 001°06'714.9
2017-Sep-16 04:01N 50°42' W 000°58'6211.1
2017-Sep-15 22:24N 49°47' W 000°13'4 8.8
2017-Sep-15 22:00N 49°44' W 000°10'4 8.6
2017-Sep-15 21:30N 49°40' W 000°06'4 8.4
2017-Sep-15 21:00N 49°36' W 000°03'612.2
2017-Sep-15 20:30N 49°31' E 000°01'4 7.7
2017-Sep-15 20:00N 49°29' E 000°07'0 0.0
2017-Sep-15 19:30N 49°29' E 000°07'0 0.0
2017-Sep-15 19:00N 49°29' E 000°07'0 0.0
2017-Sep-15 18:30N 49°29' E 000°07'0 0.0
2017-Sep-15 18:00N 49°29' E 000°07'0 0.0
2017-Sep-15 17:30N 49°29' E 000°07'0 0.0
2017-Sep-15 17:00N 49°29' E 000°07'0 0.0
2017-Sep-15 16:30N 49°29' E 000°07'0 0.0
2017-Sep-15 16:00N 49°29' E 000°07'0 0.0
2017-Sep-15 15:30N 49°29' E 000°07'0 0.0
2017-Sep-15 15:00N 49°29' E 000°07'0 0.0
2017-Sep-15 14:30N 49°29' E 000°07'0 0.0
2017-Sep-15 14:00N 49°29' E 000°07'0 0.0
2017-Sep-15 13:30N 49°29' E 000°07'0 0.0
2017-Sep-15 13:00N 49°29' E 000°07'0 0.0
2017-Sep-15 12:30N 49°29' E 000°07'0 0.0
2017-Sep-15 12:00N 49°29' E 000°07'0 0.0
2017-Sep-15 11:30N 49°29' E 000°07'0 0.0
2017-Sep-15 11:00N 49°29' E 000°07'0 0.0
2017-Sep-15 10:30N 49°29' E 000°07'0 0.0
2017-Sep-15 10:00N 49°29' E 000°07'0 0.0
2017-Sep-15 09:30N 49°29' E 000°07'0 0.0
2017-Sep-15 09:00N 49°29' E 000°07'0 0.0
2017-Sep-15 08:30N 49°29' E 000°07'0 0.0
2017-Sep-15 08:00N 49°29' E 000°07'0 0.0
2017-Sep-15 07:30N 49°29' E 000°07'0 0.0
2017-Sep-15 07:00N 49°29' E 000°07'0 0.0
2017-Sep-15 06:30N 49°29' E 000°07'1 1.8
2017-Sep-15 06:01N 49°29' E 000°05'612.3
2017-Sep-15 05:30N 49°33' W 000°02'612.2
2017-Sep-15 05:00N 49°39' W 000°06'612.4
2017-Sep-15 04:30N 49°44' W 000°10'612.4
2017-Sep-15 04:00N 49°50' W 000°12'4312.7
2017-Sep-15 00:35N 50°28' W 000°45'613.3
2017-Sep-15 00:07N 50°33' W 000°50'213.2
2017-Sep-15 00:00N 50°35' W 000°51'713.4
2017-Sep-14 23:30N 50°40' W 000°57'713.3
2017-Sep-14 23:00N 50°45' W 001°05'4 7.8
2017-Sep-14 22:31N 50°49' W 001°06'0 0.3
2017-Sep-14 22:00N 50°49' W 001°06'0 0.0
2017-Sep-14 21:30N 50°49' W 001°06'0 0.0
2017-Sep-14 21:00N 50°49' W 001°06'0 0.0
2017-Sep-14 20:30N 50°49' W 001°06'0 0.0
2017-Sep-14 20:01N 50°49' W 001°06'1 1.2
2017-Sep-14 19:30N 50°48' W 001°07'4 7.4
2017-Sep-14 19:00N 50°45' W 001°05'714.2
2017-Sep-14 18:30N 50°38' W 001°06'918.6
2017-Sep-14 18:00N 50°31' W 001°15'7021.0
2017-Sep-14 14:41N 49°50' W 002°43'421.8
2017-Sep-14 14:30N 49°48' W 002°48'1321.5
2017-Sep-14 13:54N 49°40' W 003°04'921.1
2017-Sep-14 13:29N 49°34' W 003°14'6521.1
2017-Sep-14 10:24N 48°49' W 004°27'821.2
2017-Sep-14 10:00N 48°44' W 004°36'1121.3
2017-Sep-14 09:30N 48°37' W 004°48'917.4
2017-Sep-14 09:00N 48°28' W 004°51'714.9
2017-Sep-14 08:30N 48°21' W 004°49'815.2
2017-Sep-14 08:00N 48°14' W 004°50'917.9
2017-Sep-14 07:31N 48°05' W 004°45'714.4
2017-Sep-14 07:01N 47°58' W 004°43'918.4
2017-Sep-14 06:30N 47°49' W 004°40'78 2.7
2017-Sep-13 01:43N 46°34' W 004°12'920.2
2017-Sep-13 01:15N 46°43' W 004°16'520.4
2017-Sep-13 00:59N 46°48' W 004°18'5520.7
2017-Sep-12 22:19N 47°42' W 004°37'620.8
2017-Sep-12 22:00N 47°48' W 004°39'1020.5
2017-Sep-12 21:31N 47°58' W 004°43'816.8
2017-Sep-12 21:01N 48°06' W 004°45'1020.3
2017-Sep-12 20:31N 48°16' W 004°46'815.7
2017-Sep-12 20:01N 48°24' W 004°49'815.3
2017-Sep-12 19:30N 48°31' W 004°51'917.5
2017-Sep-12 19:00N 48°39' W 004°44'917.7
2017-Sep-12 18:30N 48°46' W 004°35'6919.6
2017-Sep-12 15:00N 49°35' W 003°22'1120.4
2017-Sep-12 14:27N 49°44' W 003°13'1220.1
2017-Sep-12 13:52N 49°53' W 003°01'719.5
2017-Sep-12 13:30N 49°58' W 002°53'6718.1
2017-Sep-12 09:50N 50°29' W 001°21'818.7
2017-Sep-12 09:25N 50°33' W 001°10'818.9
2017-Sep-12 09:00N 50°38' W 001°01'714.2
2017-Sep-12 08:30N 50°45' W 001°05'4 8.3
2017-Sep-12 08:00N 50°49' W 001°06'0 0.0
2017-Sep-12 07:30N 50°49' W 001°06'0 0.0
2017-Sep-12 07:00N 50°49' W 001°06'0 0.0
2017-Sep-12 06:30N 50°49' W 001°06'0 0.0
2017-Sep-12 06:00N 50°49' W 001°06'0 0.0
2017-Sep-12 05:30N 50°49' W 001°06'0 0.0
2017-Sep-12 05:00N 50°49' W 001°06'0 0.0
2017-Sep-12 04:30N 50°49' W 001°06'0 0.0
2017-Sep-12 04:00N 50°49' W 001°06'0 0.0
2017-Sep-12 03:30N 50°49' W 001°06'0 0.0
2017-Sep-12 03:00N 50°49' W 001°06'0 0.0
2017-Sep-12 02:30N 50°49' W 001°06'0 0.0
2017-Sep-12 02:00N 50°49' W 001°06'0 0.0
2017-Sep-12 01:30N 50°49' W 001°06'0 0.0
2017-Sep-12 01:00N 50°49' W 001°06'0 0.0
2017-Sep-12 00:31N 50°49' W 001°06'  

Dump ship's entire track history